createdAt,value
2017-03-09T00:01:58.879Z,1009.2
2017-03-09T00:12:13.338Z,1009.3
2017-03-09T00:22:27.765Z,1009.6
2017-03-09T00:32:42.618Z,1009.8
2017-03-09T00:42:56.889Z,1009.9
2017-03-09T00:53:10.197Z,1010
2017-03-09T01:03:24.868Z,1010.1
2017-03-09T01:13:39.476Z,1010.1
2017-03-09T01:23:53.552Z,1010.2
2017-03-09T01:34:08.675Z,1010.2
2017-03-09T01:44:21.872Z,1010.2
2017-03-09T01:54:35.183Z,1010.3
2017-03-09T02:04:48.508Z,1010.4
2017-03-09T02:15:02.548Z,1010.3
2017-03-09T02:25:16.300Z,1010.3
2017-03-09T02:35:31.058Z,1010.2
2017-03-09T02:45:45.146Z,1010.3
2017-03-09T02:55:58.452Z,1010.4
2017-03-09T03:06:11.995Z,1010.6
2017-03-09T03:16:25.741Z,1010.6
2017-03-09T03:26:46.059Z,1010.6
2017-03-09T03:36:54.077Z,1010.5
2017-03-09T03:47:08.760Z,1010.5
2017-03-09T03:57:22.206Z,1010.5
2017-03-09T04:07:35.628Z,1010.5
2017-03-09T04:17:55.047Z,1010.4
2017-03-09T04:28:04.181Z,1010.4
2017-03-09T04:38:24.763Z,1010.6
2017-03-09T04:48:31.324Z,1010.5
2017-03-09T04:58:45.561Z,1010.4
2017-03-09T05:08:59.993Z,1010.5
2017-03-09T05:19:14.608Z,1010.5
2017-03-09T05:29:30.021Z,1010.6
2017-03-09T05:39:42.389Z,1010.4
2017-03-09T05:49:57.229Z,1010.5
2017-03-09T06:00:11.446Z,1010.4
2017-03-09T06:10:26.253Z,1010.5
2017-03-09T06:20:41.190Z,1010.4
2017-03-09T06:30:55.088Z,1010.2
2017-03-09T06:41:08.943Z,1010.2
2017-03-09T06:51:22.865Z,1010.1
2017-03-09T07:01:36.916Z,1010.2
2017-03-09T07:11:50.812Z,1010.2
2017-03-09T07:22:04.955Z,1010
2017-03-09T07:32:19.559Z,1010.2
2017-03-09T07:42:33.551Z,1009.9
2017-03-09T07:52:48.471Z,1009.9
2017-03-09T08:03:07.931Z,1009.8
2017-03-09T08:13:17.359Z,1009.6
2017-03-09T08:23:31.459Z,1009.7
2017-03-09T08:33:46.330Z,1009.7
2017-03-09T08:44:02.505Z,1010
2017-03-09T08:54:14.499Z,1010
2017-03-09T09:04:28.007Z,1009.9
2017-03-09T09:14:41.843Z,1009.8
2017-03-09T09:24:56.335Z,1009.8
2017-03-09T09:35:10.560Z,1009.7
2017-03-09T09:45:25.815Z,1009.6
2017-03-09T09:55:40.418Z,1009.4
2017-03-09T10:05:53.851Z,1009.5
2017-03-09T10:16:10.780Z,1009.5
2017-03-09T10:26:21.689Z,1009.4
2017-03-09T10:36:36.775Z,1009.3
2017-03-09T10:46:58.721Z,1009.3
2017-03-09T10:57:05.899Z,1009.6
2017-03-09T11:07:20.971Z,1009.4
2017-03-09T11:18:25.308Z,1009.4
2017-03-09T11:27:49.496Z,1009.1
2017-03-09T11:38:03.576Z,1009
2017-03-09T11:48:18.487Z,1009
2017-03-09T11:58:32.995Z,1008.9
2017-03-09T12:08:52.605Z,1008.8
2017-03-09T12:19:02.192Z,1009
2017-03-09T12:29:21.793Z,1008.8
2017-03-09T12:39:31.375Z,1008.6
2017-03-09T12:49:45.978Z,1008.4
2017-03-09T13:00:00.874Z,1008.4
2017-03-09T13:10:14.484Z,1008.7
2017-03-09T13:20:28.729Z,1008.6
2017-03-09T13:30:42.301Z,1008.7
2017-03-09T13:41:02.002Z,1008.5
2017-03-09T13:51:20.128Z,1008.7
2017-03-09T14:01:26.082Z,1008.9
2017-03-09T14:11:40.406Z,1008.8
2017-03-09T14:21:53.898Z,1009.1
2017-03-09T14:32:08.246Z,1009
2017-03-09T14:42:22.533Z,1009.4
2017-03-09T15:02:51.350Z,1009.4
2017-03-09T15:13:06.130Z,1009.3
2017-03-09T15:23:21.196Z,1009.5
2017-03-09T15:33:35.469Z,1009.3
2017-03-09T15:43:50.571Z,1009.6
2017-03-09T15:54:04.933Z,1009.5
2017-03-09T16:04:19.691Z,1009.5
2017-03-09T16:14:33.031Z,1009.7
2017-03-09T16:24:47.391Z,1009.8
2017-03-09T16:35:02.653Z,1010.1
2017-03-09T16:45:16.334Z,1010.4
2017-03-09T16:55:30.975Z,1010.6
2017-03-09T17:05:45.932Z,1010.7
2017-03-09T17:16:00.450Z,1011
2017-03-09T17:26:14.530Z,1011.2
2017-03-09T17:36:29.389Z,1011.2
2017-03-09T17:46:44.251Z,1011.3
2017-03-09T17:56:57.684Z,1011.4
2017-03-09T18:07:11.007Z,1011.5
2017-03-09T18:17:24.147Z,1011.7
2017-03-09T18:27:38.281Z,1011.8
2017-03-09T18:37:51.496Z,1012
2017-03-09T18:48:05.849Z,1012.3
2017-03-09T18:58:19.863Z,1012.4
2017-03-09T19:08:33.983Z,1012.5
2017-03-09T19:18:47.856Z,1012.6
2017-03-09T19:29:02.881Z,1012.7
2017-03-09T19:39:16.545Z,1012.8
2017-03-09T19:49:29.930Z,1013
2017-03-09T19:59:44.297Z,1013.2
2017-03-09T20:09:59.091Z,1013.4
2017-03-09T20:20:12.916Z,1013.7
2017-03-09T20:30:26.410Z,1013.8
2017-03-09T20:40:39.620Z,1013.9
2017-03-09T20:50:54.596Z,1014
2017-03-09T21:01:15.495Z,1014.1
2017-03-09T21:11:40.349Z,1014.2
2017-03-09T21:21:36.033Z,1014.5
2017-03-09T21:31:50.081Z,1014.6
2017-03-09T21:42:03.283Z,1014.8
2017-03-09T21:52:17.699Z,1015
2017-03-09T22:02:31.047Z,1015
2017-03-09T22:12:45.780Z,1015.3
2017-03-09T22:22:58.944Z,1015.4
2017-03-09T22:33:12.018Z,1015.6
2017-03-09T22:43:26.732Z,1015.8
2017-03-09T22:53:42.138Z,1016
2017-03-09T23:03:53.866Z,1016.2
2017-03-09T23:14:07.828Z,1016.6
2017-03-09T23:24:21.340Z,1016.8
2017-03-09T23:34:34.619Z,1016.9
2017-03-09T23:44:49.145Z,1017.1
2017-03-09T23:55:02.905Z,1017.2
